sensor_id;sensor_type;location;lat;lon;timestamp;P1;durP1;ratioP1;P2;durP2;ratioP2
66802;SDS011;53705;49.860;8.744;2023-06-14T00:02:01;5.72;;;3.25;;
66802;SDS011;53705;49.860;8.744;2023-06-14T00:04:30;6.10;;;2.92;;
66802;SDS011;53705;49.860;8.744;2023-06-14T00:06:59;8.93;;;3.25;;
66802;SDS011;53705;49.860;8.744;2023-06-14T00:09:27;9.70;;;4.15;;
66802;SDS011;53705;49.860;8.744;2023-06-14T00:11:55;6.13;;;3.20;;
66802;SDS011;53705;49.860;8.744;2023-06-14T00:14:23;6.35;;;3.45;;
66802;SDS011;53705;49.860;8.744;2023-06-14T00:16:51;7.88;;;3.63;;
66802;SDS011;53705;49.860;8.744;2023-06-14T00:19:25;6.97;;;3.90;;
66802;SDS011;53705;49.860;8.744;2023-06-14T00:21:54;9.73;;;3.38;;
66802;SDS011;53705;49.860;8.744;2023-06-14T00:24:24;6.93;;;4.60;;
66802;SDS011;53705;49.860;8.744;2023-06-14T00:26:52;7.68;;;3.42;;
66802;SDS011;53705;49.860;8.744;2023-06-14T00:29:21;7.22;;;3.38;;
66802;SDS011;53705;49.860;8.744;2023-06-14T00:31:49;7.03;;;3.40;;
66802;SDS011;53705;49.860;8.744;2023-06-14T00:34:17;7.72;;;3.20;;
66802;SDS011;53705;49.860;8.744;2023-06-14T00:36:45;6.70;;;3.50;;
66802;SDS011;53705;49.860;8.744;2023-06-14T00:39:13;7.10;;;3.20;;
66802;SDS011;53705;49.860;8.744;2023-06-14T00:41:42;7.00;;;4.43;;
66802;SDS011;53705;49.860;8.744;2023-06-14T00:44:11;5.40;;;3.35;;
66802;SDS011;53705;49.860;8.744;2023-06-14T00:46:40;6.60;;;3.35;;
66802;SDS011;53705;49.860;8.744;2023-06-14T00:49:08;6.70;;;3.60;;
66802;SDS011;53705;49.860;8.744;2023-06-14T00:51:37;5.28;;;3.17;;
66802;SDS011;53705;49.860;8.744;2023-06-14T00:54:05;6.78;;;3.90;;
66802;SDS011;53705;49.860;8.744;2023-06-14T00:56:35;7.05;;;4.05;;
66802;SDS011;53705;49.860;8.744;2023-06-14T00:59:04;6.30;;;3.90;;
66802;SDS011;53705;49.860;8.744;2023-06-14T01:01:33;6.00;;;3.80;;
66802;SDS011;53705;49.860;8.744;2023-06-14T01:04:00;5.55;;;3.88;;
66802;SDS011;53705;49.860;8.744;2023-06-14T01:06:31;6.13;;;3.42;;
66802;SDS011;53705;49.860;8.744;2023-06-14T01:09:03;6.78;;;3.80;;
66802;SDS011;53705;49.860;8.744;2023-06-14T01:11:32;7.25;;;3.88;;
66802;SDS011;53705;49.860;8.744;2023-06-14T01:14:00;6.20;;;4.30;;
66802;SDS011;53705;49.860;8.744;2023-06-14T01:16:30;6.55;;;3.65;;
66802;SDS011;53705;49.860;8.744;2023-06-14T01:18:59;7.78;;;4.15;;
66802;SDS011;53705;49.860;8.744;2023-06-14T01:21:28;9.15;;;4.22;;
66802;SDS011;53705;49.860;8.744;2023-06-14T01:23:58;7.63;;;4.30;;
66802;SDS011;53705;49.860;8.744;2023-06-14T01:26:26;6.47;;;4.15;;
66802;SDS011;53705;49.860;8.744;2023-06-14T01:28:59;5.78;;;3.40;;
66802;SDS011;53705;49.860;8.744;2023-06-14T01:31:26;7.63;;;3.97;;
66802;SDS011;53705;49.860;8.744;2023-06-14T01:33:56;8.82;;;3.67;;
66802;SDS011;53705;49.860;8.744;2023-06-14T01:36:24;5.78;;;3.67;;
66802;SDS011;53705;49.860;8.744;2023-06-14T01:38:53;6.15;;;3.78;;
66802;SDS011;53705;49.860;8.744;2023-06-14T01:41:24;6.25;;;3.67;;
66802;SDS011;53705;49.860;8.744;2023-06-14T01:43:53;7.35;;;3.38;;
66802;SDS011;53705;49.860;8.744;2023-06-14T01:46:22;6.28;;;3.55;;
66802;SDS011;53705;49.860;8.744;2023-06-14T01:48:53;6.80;;;4.30;;
66802;SDS011;53705;49.860;8.744;2023-06-14T01:51:21;6.22;;;3.88;;
66802;SDS011;53705;49.860;8.744;2023-06-14T01:53:49;7.03;;;3.72;;
66802;SDS011;53705;49.860;8.744;2023-06-14T01:56:16;5.93;;;4.20;;
66802;SDS011;53705;49.860;8.744;2023-06-14T01:58:49;5.97;;;3.97;;
66802;SDS011;53705;49.860;8.744;2023-06-14T02:01:19;7.55;;;3.90;;
66802;SDS011;53705;49.860;8.744;2023-06-14T02:03:47;6.38;;;3.05;;
66802;SDS011;53705;49.860;8.744;2023-06-14T02:06:15;8.85;;;4.47;;
66802;SDS011;53705;49.860;8.744;2023-06-14T02:08:43;6.53;;;3.90;;
66802;SDS011;53705;49.860;8.744;2023-06-14T02:11:11;7.03;;;4.05;;
66802;SDS011;53705;49.860;8.744;2023-06-14T02:13:39;6.63;;;3.90;;
66802;SDS011;53705;49.860;8.744;2023-06-14T02:16:08;6.93;;;4.22;;
66802;SDS011;53705;49.860;8.744;2023-06-14T02:18:37;7.43;;;3.45;;
66802;SDS011;53705;49.860;8.744;2023-06-14T02:21:05;5.53;;;3.05;;
66802;SDS011;53705;49.860;8.744;2023-06-14T02:23:33;7.22;;;4.38;;
66802;SDS011;53705;49.860;8.744;2023-06-14T02:26:01;7.07;;;3.58;;
66802;SDS011;53705;49.860;8.744;2023-06-14T02:28:29;6.22;;;4.35;;
66802;SDS011;53705;49.860;8.744;2023-06-14T02:30:57;7.32;;;3.92;;
66802;SDS011;53705;49.860;8.744;2023-06-14T02:33:26;6.80;;;3.70;;
66802;SDS011;53705;49.860;8.744;2023-06-14T02:35:54;8.10;;;3.55;;
66802;SDS011;53705;49.860;8.744;2023-06-14T02:38:23;7.93;;;4.32;;
66802;SDS011;53705;49.860;8.744;2023-06-14T02:40:50;6.72;;;3.75;;
66802;SDS011;53705;49.860;8.744;2023-06-14T02:43:18;6.82;;;3.20;;
66802;SDS011;53705;49.860;8.744;2023-06-14T02:45:46;7.25;;;3.72;;
66802;SDS011;53705;49.860;8.744;2023-06-14T02:48:14;6.90;;;3.63;;
66802;SDS011;53705;49.860;8.744;2023-06-14T02:50:44;6.75;;;4.00;;
66802;SDS011;53705;49.860;8.744;2023-06-14T02:53:12;10.45;;;3.97;;
66802;SDS011;53705;49.860;8.744;2023-06-14T02:55:40;6.63;;;3.78;;
66802;SDS011;53705;49.860;8.744;2023-06-14T02:58:09;7.82;;;3.05;;
66802;SDS011;53705;49.860;8.744;2023-06-14T03:00:37;6.43;;;3.35;;
66802;SDS011;53705;49.860;8.744;2023-06-14T03:03:05;9.05;;;3.90;;
66802;SDS011;53705;49.860;8.744;2023-06-14T03:05:40;8.27;;;3.85;;
66802;SDS011;53705;49.860;8.744;2023-06-14T03:08:13;8.15;;;3.63;;
66802;SDS011;53705;49.860;8.744;2023-06-14T03:10:43;8.05;;;4.10;;
66802;SDS011;53705;49.860;8.744;2023-06-14T03:13:11;6.25;;;3.92;;
66802;SDS011;53705;49.860;8.744;2023-06-14T03:15:39;7.30;;;3.50;;
66802;SDS011;53705;49.860;8.744;2023-06-14T03:18:08;5.88;;;3.15;;
66802;SDS011;53705;49.860;8.744;2023-06-14T03:20:36;9.48;;;3.97;;
66802;SDS011;53705;49.860;8.744;2023-06-14T03:23:06;8.65;;;3.92;;
66802;SDS011;53705;49.860;8.744;2023-06-14T03:25:36;6.25;;;3.80;;
66802;SDS011;53705;49.860;8.744;2023-06-14T03:28:05;6.50;;;3.63;;
66802;SDS011;53705;49.860;8.744;2023-06-14T03:30:33;6.70;;;3.85;;
66802;SDS011;53705;49.860;8.744;2023-06-14T03:33:04;5.85;;;3.58;;
66802;SDS011;53705;49.860;8.744;2023-06-14T03:35:36;8.73;;;3.25;;
66802;SDS011;53705;49.860;8.744;2023-06-14T03:38:04;7.20;;;3.63;;
66802;SDS011;53705;49.860;8.744;2023-06-14T03:40:33;5.97;;;3.33;;
66802;SDS011;53705;49.860;8.744;2023-06-14T03:43:06;7.03;;;3.50;;
66802;SDS011;53705;49.860;8.744;2023-06-14T03:45:34;6.82;;;3.45;;
66802;SDS011;53705;49.860;8.744;2023-06-14T03:48:02;10.05;;;4.10;;
66802;SDS011;53705;49.860;8.744;2023-06-14T03:50:34;6.07;;;3.55;;
66802;SDS011;53705;49.860;8.744;2023-06-14T03:53:05;5.75;;;3.17;;
66802;SDS011;53705;49.860;8.744;2023-06-14T03:55:35;8.90;;;3.90;;
66802;SDS011;53705;49.860;8.744;2023-06-14T03:58:27;7.32;;;3.85;;
66802;SDS011;53705;49.860;8.744;2023-06-14T04:00:55;8.13;;;4.35;;
66802;SDS011;53705;49.860;8.744;2023-06-14T04:03:24;7.50;;;4.10;;
66802;SDS011;53705;49.860;8.744;2023-06-14T04:05:55;5.80;;;4.03;;
66802;SDS011;53705;49.860;8.744;2023-06-14T04:08:26;7.00;;;3.92;;
66802;SDS011;53705;49.860;8.744;2023-06-14T04:10:54;6.57;;;3.30;;
66802;SDS011;53705;49.860;8.744;2023-06-14T04:13:22;5.95;;;2.95;;
66802;SDS011;53705;49.860;8.744;2023-06-14T04:15:52;5.85;;;3.10;;
66802;SDS011;53705;49.860;8.744;2023-06-14T04:18:25;8.68;;;3.35;;
66802;SDS011;53705;49.860;8.744;2023-06-14T04:20:54;5.05;;;3.22;;
66802;SDS011;53705;49.860;8.744;2023-06-14T04:23:23;6.70;;;3.17;;
66802;SDS011;53705;49.860;8.744;2023-06-14T04:25:51;6.95;;;3.72;;
66802;SDS011;53705;49.860;8.744;2023-06-14T04:28:21;7.38;;;3.33;;
66802;SDS011;53705;49.860;8.744;2023-06-14T04:30:57;7.00;;;3.22;;
66802;SDS011;53705;49.860;8.744;2023-06-14T04:33:30;7.22;;;3.20;;
66802;SDS011;53705;49.860;8.744;2023-06-14T04:36:01;7.43;;;3.25;;
66802;SDS011;53705;49.860;8.744;2023-06-14T04:38:30;6.13;;;2.55;;
66802;SDS011;53705;49.860;8.744;2023-06-14T04:41:02;8.90;;;3.75;;
66802;SDS011;53705;49.860;8.744;2023-06-14T04:43:31;6.65;;;3.55;;
66802;SDS011;53705;49.860;8.744;2023-06-14T04:46:10;6.03;;;2.75;;
66802;SDS011;53705;49.860;8.744;2023-06-14T04:48:41;7.13;;;3.70;;
66802;SDS011;53705;49.860;8.744;2023-06-14T04:51:10;6.32;;;2.88;;
66802;SDS011;53705;49.860;8.744;2023-06-14T04:53:39;10.00;;;3.20;;
66802;SDS011;53705;49.860;8.744;2023-06-14T04:56:08;5.57;;;2.70;;
66802;SDS011;53705;49.860;8.744;2023-06-14T04:58:36;6.55;;;2.65;;
66802;SDS011;53705;49.860;8.744;2023-06-14T05:01:17;6.50;;;3.88;;
66802;SDS011;53705;49.860;8.744;2023-06-14T05:03:50;6.43;;;2.85;;
66802;SDS011;53705;49.860;8.744;2023-06-14T05:06:20;7.95;;;3.67;;
66802;SDS011;53705;49.860;8.744;2023-06-14T05:08:49;5.28;;;3.17;;
66802;SDS011;53705;49.860;8.744;2023-06-14T05:11:17;8.60;;;3.25;;
66802;SDS011;53705;49.860;8.744;2023-06-14T05:13:46;5.18;;;2.78;;
66802;SDS011;53705;49.860;8.744;2023-06-14T05:16:17;6.13;;;3.17;;
66802;SDS011;53705;49.860;8.744;2023-06-14T05:18:49;8.38;;;3.72;;
66802;SDS011;53705;49.860;8.744;2023-06-14T05:21:18;5.95;;;3.05;;
66802;SDS011;53705;49.860;8.744;2023-06-14T05:23:49;7.60;;;3.60;;
66802;SDS011;53705;49.860;8.744;2023-06-14T05:26:18;5.25;;;2.80;;
66802;SDS011;53705;49.860;8.744;2023-06-14T05:28:48;9.75;;;2.85;;
66802;SDS011;53705;49.860;8.744;2023-06-14T05:31:24;10.63;;;4.00;;
66802;SDS011;53705;49.860;8.744;2023-06-14T05:33:58;5.75;;;2.90;;
66802;SDS011;53705;49.860;8.744;2023-06-14T05:36:26;6.13;;;2.47;;
66802;SDS011;53705;49.860;8.744;2023-06-14T05:38:55;5.30;;;1.95;;
66802;SDS011;53705;49.860;8.744;2023-06-14T05:41:25;5.88;;;3.30;;
66802;SDS011;53705;49.860;8.744;2023-06-14T05:43:54;4.93;;;2.45;;
66802;SDS011;53705;49.860;8.744;2023-06-14T05:46:27;4.55;;;2.80;;
66802;SDS011;53705;49.860;8.744;2023-06-14T05:48:56;6.53;;;2.88;;
66802;SDS011;53705;49.860;8.744;2023-06-14T05:51:24;6.15;;;2.70;;
66802;SDS011;53705;49.860;8.744;2023-06-14T05:53:53;5.82;;;2.60;;
66802;SDS011;53705;49.860;8.744;2023-06-14T05:56:21;7.20;;;3.15;;
66802;SDS011;53705;49.860;8.744;2023-06-14T05:58:49;5.45;;;2.25;;
66802;SDS011;53705;49.860;8.744;2023-06-14T06:01:17;5.45;;;2.55;;
66802;SDS011;53705;49.860;8.744;2023-06-14T06:03:48;5.88;;;2.58;;
66802;SDS011;53705;49.860;8.744;2023-06-14T06:06:16;5.38;;;2.80;;
66802;SDS011;53705;49.860;8.744;2023-06-14T06:08:44;6.88;;;2.38;;
66802;SDS011;53705;49.860;8.744;2023-06-14T06:11:15;5.13;;;2.70;;
66802;SDS011;53705;49.860;8.744;2023-06-14T06:13:47;6.10;;;2.65;;
66802;SDS011;53705;49.860;8.744;2023-06-14T06:16:16;7.47;;;3.38;;
66802;SDS011;53705;49.860;8.744;2023-06-14T06:18:45;5.75;;;2.38;;
66802;SDS011;53705;49.860;8.744;2023-06-14T06:21:16;5.65;;;2.33;;
66802;SDS011;53705;49.860;8.744;2023-06-14T06:23:49;6.88;;;3.08;;
66802;SDS011;53705;49.860;8.744;2023-06-14T06:26:21;5.32;;;2.30;;
66802;SDS011;53705;49.860;8.744;2023-06-14T06:28:51;5.25;;;2.72;;
66802;SDS011;53705;49.860;8.744;2023-06-14T06:31:19;4.68;;;2.42;;
66802;SDS011;53705;49.860;8.744;2023-06-14T06:33:48;6.75;;;3.28;;
66802;SDS011;53705;49.860;8.744;2023-06-14T06:36:18;6.63;;;2.47;;
66802;SDS011;53705;49.860;8.744;2023-06-14T06:38:50;5.88;;;2.20;;
66802;SDS011;53705;49.860;8.744;2023-06-14T06:41:18;5.75;;;2.85;;
66802;SDS011;53705;49.860;8.744;2023-06-14T06:43:46;4.45;;;2.53;;
66802;SDS011;53705;49.860;8.744;2023-06-14T06:46:18;5.22;;;2.88;;
66802;SDS011;53705;49.860;8.744;2023-06-14T06:52:27;5.93;;;2.63;;
66802;SDS011;53705;49.860;8.744;2023-06-14T06:54:55;4.95;;;2.38;;
66802;SDS011;53705;49.860;8.744;2023-06-14T06:57:24;4.70;;;2.35;;
66802;SDS011;53705;49.860;8.744;2023-06-14T06:59:52;4.32;;;2.13;;
66802;SDS011;53705;49.860;8.744;2023-06-14T07:02:21;4.68;;;2.15;;
66802;SDS011;53705;49.860;8.744;2023-06-14T07:04:50;5.00;;;2.33;;
66802;SDS011;53705;49.860;8.744;2023-06-14T07:07:18;5.70;;;2.78;;
66802;SDS011;53705;49.860;8.744;2023-06-14T07:09:47;7.70;;;2.50;;
66802;SDS011;53705;49.860;8.744;2023-06-14T07:12:17;5.88;;;2.55;;
66802;SDS011;53705;49.860;8.744;2023-06-14T07:14:51;5.00;;;2.40;;
66802;SDS011;53705;49.860;8.744;2023-06-14T07:17:19;5.38;;;2.55;;
66802;SDS011;53705;49.860;8.744;2023-06-14T07:19:50;4.95;;;2.15;;
66802;SDS011;53705;49.860;8.744;2023-06-14T07:22:20;5.50;;;2.63;;
66802;SDS011;53705;49.860;8.744;2023-06-14T07:24:49;7.43;;;1.95;;
66802;SDS011;53705;49.860;8.744;2023-06-14T07:27:17;5.10;;;2.13;;
66802;SDS011;53705;49.860;8.744;2023-06-14T07:29:46;3.45;;;1.85;;
66802;SDS011;53705;49.860;8.744;2023-06-14T07:32:14;4.50;;;1.77;;
66802;SDS011;53705;49.860;8.744;2023-06-14T07:34:42;4.05;;;1.70;;
66802;SDS011;53705;49.860;8.744;2023-06-14T07:37:12;6.15;;;1.77;;
66802;SDS011;53705;49.860;8.744;2023-06-14T07:39:40;6.47;;;1.98;;
66802;SDS011;53705;49.860;8.744;2023-06-14T07:42:12;5.07;;;1.80;;
66802;SDS011;53705;49.860;8.744;2023-06-14T07:44:40;4.95;;;2.08;;
66802;SDS011;53705;49.860;8.744;2023-06-14T07:47:09;8.40;;;2.20;;
66802;SDS011;53705;49.860;8.744;2023-06-14T07:49:37;4.38;;;1.42;;
66802;SDS011;53705;49.860;8.744;2023-06-14T07:52:06;5.13;;;2.38;;
66802;SDS011;53705;49.860;8.744;2023-06-14T07:54:34;3.60;;;1.83;;
66802;SDS011;53705;49.860;8.744;2023-06-14T07:57:02;4.70;;;2.20;;
66802;SDS011;53705;49.860;8.744;2023-06-14T07:59:34;4.47;;;1.60;;
66802;SDS011;53705;49.860;8.744;2023-06-14T08:02:02;4.93;;;1.58;;
66802;SDS011;53705;49.860;8.744;2023-06-14T08:04:33;4.95;;;1.33;;
66802;SDS011;53705;49.860;8.744;2023-06-14T08:07:03;4.28;;;1.60;;
66802;SDS011;53705;49.860;8.744;2023-06-14T08:09:35;4.53;;;1.17;;
66802;SDS011;53705;49.860;8.744;2023-06-14T08:12:05;3.97;;;0.88;;
66802;SDS011;53705;49.860;8.744;2023-06-14T08:14:38;6.20;;;1.10;;
66802;SDS011;53705;49.860;8.744;2023-06-14T08:17:07;3.53;;;1.05;;
66802;SDS011;53705;49.860;8.744;2023-06-14T08:19:35;10.02;;;3.42;;
66802;SDS011;53705;49.860;8.744;2023-06-14T08:22:07;4.50;;;1.58;;
66802;SDS011;53705;49.860;8.744;2023-06-14T08:24:41;3.97;;;1.38;;
66802;SDS011;53705;49.860;8.744;2023-06-14T08:27:10;3.42;;;1.00;;
66802;SDS011;53705;49.860;8.744;2023-06-14T08:29:44;2.55;;;0.82;;
66802;SDS011;53705;49.860;8.744;2023-06-14T08:32:13;4.55;;;1.63;;
66802;SDS011;53705;49.860;8.744;2023-06-14T08:34:44;3.65;;;1.92;;
66802;SDS011;53705;49.860;8.744;2023-06-14T08:37:30;14.02;;;5.30;;
66802;SDS011;53705;49.860;8.744;2023-06-14T08:39:58;5.57;;;2.20;;
66802;SDS011;53705;49.860;8.744;2023-06-14T08:45:00;2.75;;;1.15;;
66802;SDS011;53705;49.860;8.744;2023-06-14T08:47:29;3.00;;;0.63;;
66802;SDS011;53705;49.860;8.744;2023-06-14T08:52:54;4.20;;;1.33;;
66802;SDS011;53705;49.860;8.744;2023-06-14T08:55:26;3.88;;;0.90;;
66802;SDS011;53705;49.860;8.744;2023-06-14T08:58:01;4.93;;;1.35;;
66802;SDS011;53705;49.860;8.744;2023-06-14T09:00:32;2.40;;;0.73;;
66802;SDS011;53705;49.860;8.744;2023-06-14T09:03:01;2.67;;;1.23;;
66802;SDS011;53705;49.860;8.744;2023-06-14T09:05:32;2.80;;;0.80;;
66802;SDS011;53705;49.860;8.744;2023-06-14T09:08:06;4.57;;;0.90;;
66802;SDS011;53705;49.860;8.744;2023-06-14T09:10:38;2.53;;;0.90;;
66802;SDS011;53705;49.860;8.744;2023-06-14T09:13:08;4.25;;;0.98;;
66802;SDS011;53705;49.860;8.744;2023-06-14T09:15:39;3.85;;;0.95;;
66802;SDS011;53705;49.860;8.744;2023-06-14T09:18:10;4.22;;;1.17;;
66802;SDS011;53705;49.860;8.744;2023-06-14T09:20:40;2.70;;;0.82;;
66802;SDS011;53705;49.860;8.744;2023-06-14T09:23:19;3.70;;;0.98;;
66802;SDS011;53705;49.860;8.744;2023-06-14T09:25:50;2.30;;;1.13;;
66802;SDS011;53705;49.860;8.744;2023-06-14T09:28:19;4.65;;;1.15;;
66802;SDS011;53705;49.860;8.744;2023-06-14T09:30:54;1.95;;;0.32;;
66802;SDS011;53705;49.860;8.744;2023-06-14T09:33:22;6.88;;;1.98;;
66802;SDS011;53705;49.860;8.744;2023-06-14T09:35:53;3.47;;;0.82;;
66802;SDS011;53705;49.860;8.744;2023-06-14T09:38:24;6.53;;;0.93;;
66802;SDS011;53705;49.860;8.744;2023-06-14T09:40:56;2.78;;;0.63;;
66802;SDS011;53705;49.860;8.744;2023-06-14T09:46:17;3.63;;;1.25;;
66802;SDS011;53705;49.860;8.744;2023-06-14T09:48:45;2.33;;;0.68;;
66802;SDS011;53705;49.860;8.744;2023-06-14T09:51:13;4.20;;;0.82;;
66802;SDS011;53705;49.860;8.744;2023-06-14T09:53:44;3.50;;;1.55;;
66802;SDS011;53705;49.860;8.744;2023-06-14T09:56:15;2.97;;;0.63;;
66802;SDS011;53705;49.860;8.744;2023-06-14T09:58:47;2.58;;;1.02;;
66802;SDS011;53705;49.860;8.744;2023-06-14T10:04:06;1.70;;;0.60;;
66802;SDS011;53705;49.860;8.744;2023-06-14T10:06:45;3.00;;;1.23;;
66802;SDS011;53705;49.860;8.744;2023-06-14T10:09:14;2.20;;;0.70;;
66802;SDS011;53705;49.860;8.744;2023-06-14T10:11:43;2.10;;;0.63;;
66802;SDS011;53705;49.860;8.744;2023-06-14T10:14:12;1.90;;;0.32;;
66802;SDS011;53705;49.860;8.744;2023-06-14T10:16:45;5.55;;;1.42;;
66802;SDS011;53705;49.860;8.744;2023-06-14T10:19:24;2.85;;;0.95;;
66802;SDS011;53705;49.860;8.744;2023-06-14T10:21:57;2.30;;;0.85;;
66802;SDS011;53705;49.860;8.744;2023-06-14T10:24:29;2.72;;;1.33;;
66802;SDS011;53705;49.860;8.744;2023-06-14T10:29:30;2.10;;;0.50;;
66802;SDS011;53705;49.860;8.744;2023-06-14T10:31:59;2.15;;;0.65;;
66802;SDS011;53705;49.860;8.744;2023-06-14T10:34:30;2.42;;;0.75;;
66802;SDS011;53705;49.860;8.744;2023-06-14T10:37:02;4.22;;;0.90;;
66802;SDS011;53705;49.860;8.744;2023-06-14T10:39:38;2.92;;;0.65;;
66802;SDS011;53705;49.860;8.744;2023-06-14T10:42:12;3.33;;;0.93;;
66802;SDS011;53705;49.860;8.744;2023-06-14T10:44:45;2.10;;;0.43;;
66802;SDS011;53705;49.860;8.744;2023-06-14T10:47:20;2.90;;;1.45;;
66802;SDS011;53705;49.860;8.744;2023-06-14T10:49:52;3.50;;;0.75;;
66802;SDS011;53705;49.860;8.744;2023-06-14T10:52:26;2.55;;;0.80;;
66802;SDS011;53705;49.860;8.744;2023-06-14T10:55:00;2.67;;;1.02;;
66802;SDS011;53705;49.860;8.744;2023-06-14T10:57:32;3.83;;;0.68;;
66802;SDS011;53705;49.860;8.744;2023-06-14T11:03:23;2.25;;;0.82;;
66802;SDS011;53705;49.860;8.744;2023-06-14T11:06:28;2.83;;;1.10;;
66802;SDS011;53705;49.860;8.744;2023-06-14T11:12:03;3.20;;;1.08;;
66802;SDS011;53705;49.860;8.744;2023-06-14T11:14:42;4.85;;;1.75;;
66802;SDS011;53705;49.860;8.744;2023-06-14T11:17:18;4.15;;;1.10;;
66802;SDS011;53705;49.860;8.744;2023-06-14T11:19:48;2.45;;;1.27;;
66802;SDS011;53705;49.860;8.744;2023-06-14T11:22:29;3.10;;;1.05;;
66802;SDS011;53705;49.860;8.744;2023-06-14T11:25:08;5.28;;;2.17;;
66802;SDS011;53705;49.860;8.744;2023-06-14T11:27:39;5.03;;;1.85;;
66802;SDS011;53705;49.860;8.744;2023-06-14T11:30:09;3.05;;;1.25;;
66802;SDS011;53705;49.860;8.744;2023-06-14T11:32:38;2.30;;;1.15;;
66802;SDS011;53705;49.860;8.744;2023-06-14T11:35:06;2.60;;;1.35;;
66802;SDS011;53705;49.860;8.744;2023-06-14T11:37:41;2.95;;;1.48;;
66802;SDS011;53705;49.860;8.744;2023-06-14T11:40:14;2.85;;;1.52;;
66802;SDS011;53705;49.860;8.744;2023-06-14T11:42:44;2.30;;;1.13;;
66802;SDS011;53705;49.860;8.744;2023-06-14T11:45:18;3.13;;;1.55;;
66802;SDS011;53705;49.860;8.744;2023-06-14T11:47:46;2.63;;;1.13;;
66802;SDS011;53705;49.860;8.744;2023-06-14T11:50:15;3.53;;;0.85;;
66802;SDS011;53705;49.860;8.744;2023-06-14T11:52:44;3.75;;;1.63;;
66802;SDS011;53705;49.860;8.744;2023-06-14T11:55:15;4.70;;;1.83;;
66802;SDS011;53705;49.860;8.744;2023-06-14T11:57:46;2.70;;;1.10;;
66802;SDS011;53705;49.860;8.744;2023-06-14T12:00:14;2.72;;;1.00;;
66802;SDS011;53705;49.860;8.744;2023-06-14T12:02:51;3.05;;;1.73;;
66802;SDS011;53705;49.860;8.744;2023-06-14T12:05:24;3.00;;;1.15;;
66802;SDS011;53705;49.860;8.744;2023-06-14T12:07:59;3.00;;;1.23;;
66802;SDS011;53705;49.860;8.744;2023-06-14T12:10:31;3.15;;;1.48;;
66802;SDS011;53705;49.860;8.744;2023-06-14T12:13:08;4.18;;;1.10;;
66802;SDS011;53705;49.860;8.744;2023-06-14T12:15:43;2.67;;;1.20;;
66802;SDS011;53705;49.860;8.744;2023-06-14T12:18:11;2.15;;;0.85;;
66802;SDS011;53705;49.860;8.744;2023-06-14T12:20:47;2.97;;;1.55;;
66802;SDS011;53705;49.860;8.744;2023-06-14T12:23:20;3.42;;;1.77;;
66802;SDS011;53705;49.860;8.744;2023-06-14T12:25:53;3.35;;;1.50;;
66802;SDS011;53705;49.860;8.744;2023-06-14T12:28:24;3.35;;;1.25;;
66802;SDS011;53705;49.860;8.744;2023-06-14T12:31:03;3.30;;;1.27;;
66802;SDS011;53705;49.860;8.744;2023-06-14T12:33:32;6.50;;;1.65;;
66802;SDS011;53705;49.860;8.744;2023-06-14T12:36:02;4.93;;;1.70;;
66802;SDS011;53705;49.860;8.744;2023-06-14T12:38:32;3.33;;;1.30;;
66802;SDS011;53705;49.860;8.744;2023-06-14T12:41:02;4.47;;;1.70;;
66802;SDS011;53705;49.860;8.744;2023-06-14T12:43:30;3.90;;;1.15;;
66802;SDS011;53705;49.860;8.744;2023-06-14T12:45:58;3.40;;;1.35;;
66802;SDS011;53705;49.860;8.744;2023-06-14T12:48:26;2.85;;;1.38;;
66802;SDS011;53705;49.860;8.744;2023-06-14T12:50:56;2.70;;;0.95;;
66802;SDS011;53705;49.860;8.744;2023-06-14T12:53:24;4.47;;;1.58;;
66802;SDS011;53705;49.860;8.744;2023-06-14T12:55:54;3.58;;;1.05;;
66802;SDS011;53705;49.860;8.744;2023-06-14T12:58:21;3.38;;;1.13;;
66802;SDS011;53705;49.860;8.744;2023-06-14T13:00:50;3.45;;;1.25;;
66802;SDS011;53705;49.860;8.744;2023-06-14T13:03:19;3.30;;;1.25;;
66802;SDS011;53705;49.860;8.744;2023-06-14T13:05:48;2.33;;;1.25;;
66802;SDS011;53705;49.860;8.744;2023-06-14T13:08:16;4.20;;;1.30;;
66802;SDS011;53705;49.860;8.744;2023-06-14T13:10:44;2.50;;;1.17;;
66802;SDS011;53705;49.860;8.744;2023-06-14T13:13:14;2.30;;;1.48;;
66802;SDS011;53705;49.860;8.744;2023-06-14T13:15:42;2.63;;;1.35;;
66802;SDS011;53705;49.860;8.744;2023-06-14T13:18:12;2.97;;;1.13;;
66802;SDS011;53705;49.860;8.744;2023-06-14T13:20:41;2.70;;;1.50;;
66802;SDS011;53705;49.860;8.744;2023-06-14T13:23:09;2.80;;;1.17;;
66802;SDS011;53705;49.860;8.744;2023-06-14T13:25:38;3.10;;;1.25;;
66802;SDS011;53705;49.860;8.744;2023-06-14T13:28:06;4.63;;;1.38;;
66802;SDS011;53705;49.860;8.744;2023-06-14T13:30:36;2.70;;;1.58;;
66802;SDS011;53705;49.860;8.744;2023-06-14T13:33:04;4.10;;;2.47;;
66802;SDS011;53705;49.860;8.744;2023-06-14T13:35:34;2.78;;;1.45;;
66802;SDS011;53705;49.860;8.744;2023-06-14T13:38:02;4.40;;;1.80;;
66802;SDS011;53705;49.860;8.744;2023-06-14T13:40:30;3.15;;;1.35;;
66802;SDS011;53705;49.860;8.744;2023-06-14T13:42:58;3.72;;;1.33;;
66802;SDS011;53705;49.860;8.744;2023-06-14T13:45:27;3.47;;;1.58;;
66802;SDS011;53705;49.860;8.744;2023-06-14T13:48:13;5.10;;;1.08;;
66802;SDS011;53705;49.860;8.744;2023-06-14T13:51:01;3.10;;;1.15;;
66802;SDS011;53705;49.860;8.744;2023-06-14T13:53:34;3.15;;;1.45;;
66802;SDS011;53705;49.860;8.744;2023-06-14T13:56:02;2.75;;;1.08;;
66802;SDS011;53705;49.860;8.744;2023-06-14T13:58:30;3.45;;;1.45;;
66802;SDS011;53705;49.860;8.744;2023-06-14T14:00:58;2.58;;;1.10;;
66802;SDS011;53705;49.860;8.744;2023-06-14T14:03:47;4.07;;;1.60;;
66802;SDS011;53705;49.860;8.744;2023-06-14T14:06:37;3.13;;;1.08;;
66802;SDS011;53705;49.860;8.744;2023-06-14T14:09:41;3.65;;;1.55;;
66802;SDS011;53705;49.860;8.744;2023-06-14T14:12:34;2.83;;;1.25;;
66802;SDS011;53705;49.860;8.744;2023-06-14T14:15:44;4.85;;;0.80;;
66802;SDS011;53705;49.860;8.744;2023-06-14T14:18:31;3.45;;;1.27;;
66802;SDS011;53705;49.860;8.744;2023-06-14T14:21:38;3.72;;;1.88;;
66802;SDS011;53705;49.860;8.744;2023-06-14T14:24:49;3.08;;;1.23;;
66802;SDS011;53705;49.860;8.744;2023-06-14T14:28:00;2.53;;;1.25;;
66802;SDS011;53705;49.860;8.744;2023-06-14T14:31:06;3.05;;;1.15;;
66802;SDS011;53705;49.860;8.744;2023-06-14T14:33:54;3.70;;;1.63;;
66802;SDS011;53705;49.860;8.744;2023-06-14T14:36:48;3.05;;;1.40;;
66802;SDS011;53705;49.860;8.744;2023-06-14T14:39:36;3.80;;;1.48;;
66802;SDS011;53705;49.860;8.744;2023-06-14T14:42:04;2.60;;;1.30;;
66802;SDS011;53705;49.860;8.744;2023-06-14T14:44:35;3.58;;;1.67;;
66802;SDS011;53705;49.860;8.744;2023-06-14T14:47:03;6.28;;;1.52;;
66802;SDS011;53705;49.860;8.744;2023-06-14T14:49:31;8.77;;;1.50;;
66802;SDS011;53705;49.860;8.744;2023-06-14T14:52:01;2.70;;;1.20;;
66802;SDS011;53705;49.860;8.744;2023-06-14T14:54:48;2.55;;;0.93;;
66802;SDS011;53705;49.860;8.744;2023-06-14T14:57:16;2.80;;;1.50;;
66802;SDS011;53705;49.860;8.744;2023-06-14T14:59:44;3.58;;;0.82;;
66802;SDS011;53705;49.860;8.744;2023-06-14T15:02:12;2.58;;;1.33;;
66802;SDS011;53705;49.860;8.744;2023-06-14T15:04:40;2.90;;;1.23;;
66802;SDS011;53705;49.860;8.744;2023-06-14T15:07:11;3.33;;;1.00;;
66802;SDS011;53705;49.860;8.744;2023-06-14T15:09:39;2.95;;;1.20;;
66802;SDS011;53705;49.860;8.744;2023-06-14T15:12:08;3.28;;;1.38;;
66802;SDS011;53705;49.860;8.744;2023-06-14T15:14:37;3.72;;;1.67;;
66802;SDS011;53705;49.860;8.744;2023-06-14T15:17:05;2.47;;;1.00;;
66802;SDS011;53705;49.860;8.744;2023-06-14T15:19:34;3.78;;;1.65;;
66802;SDS011;53705;49.860;8.744;2023-06-14T15:22:04;4.88;;;2.08;;
66802;SDS011;53705;49.860;8.744;2023-06-14T15:24:36;5.53;;;1.25;;
66802;SDS011;53705;49.860;8.744;2023-06-14T15:27:09;2.28;;;0.82;;
66802;SDS011;53705;49.860;8.744;2023-06-14T15:29:38;2.35;;;1.00;;
66802;SDS011;53705;49.860;8.744;2023-06-14T15:32:11;2.72;;;1.15;;
66802;SDS011;53705;49.860;8.744;2023-06-14T15:34:39;2.83;;;1.70;;
66802;SDS011;53705;49.860;8.744;2023-06-14T15:37:08;4.07;;;1.00;;